Terminal Aerodrome Forecast
Issued by NWS

Home | Current Version | Previous Version | Graphics & Text | Print | Product List | Glossary On
Versions: 1 2 3 4 5 6 7 8 9 10 11 12 13 14 15 16 17 18 19
000
FTUS43 KICT 262002 AAA
TAFHUT
TAF AMD
KHUT 262002Z 2620/2718 18013KT P6SM BKN300
     FM270100 17007KT P6SM BKN300=

USA.gov is the U.S. government's official web portal to all federal, state and local government web resources and services.